KAFN

Details ICAO KAFN
Name Jaffrey Airport Silver Ranch
Region United States
Timezone America/New_York (UTC-4.0)
Plans Departing 0
Arriving 2
Stats Elevation 1,040 ft / 317 m (AMSL)
Location 42.805135° -72.003023°
Runways 1
Magnetic Variation 14.342° W
Sunrise 2018-05-27 09:16:38 UTC / 2018-05-27 05:16:38 Local
Sunset 2018-05-28 00:16:38 UTC / 2018-05-27 20:16:38 Local
Advertisement - Login to hide

Runways

ID Width Length Bearing (true) Bearing (mag) Surface Threshold Offset Overrun Length
16 49 ft / 15 m 2,983 ft / 909 m 148.14° 162.48° Asphalt 0 ft / 0 m 0 ft / 0 m
34 49 ft / 15 m 2,983 ft / 909 m 328.14° 342.48° Asphalt 581 ft / 177 m 0 ft / 0 m

Map

Weather


0- 5 10 15 20 25 30 35+ Temperature / ° C

Clouds and Precipitation
Forecast for 2018-05-27 12:00 UTC. Updated an hour ago

Ground ~20,000 ft ~40,000 ft Winds

METAR

KAFN 271152Z AUTO VRB03KT 2 1/2SM BR OVC006 12/12 A3017 RMK AO2 CIG 005V009 SLP220 60002 70003 T01220117 10183 20122 53020

TAF

Not found

Frequencies

Recorded 135.87 MHz ASOS
Unicom 122.80 MHz CTAF/Unicom
Warning: Do not use this data for real-world aviation or navigation. No guarantee of current accuracy is given.